上海/浦東 の空港の天気 - METARとTAF

上海浦東国際空港 ( ZSPD / PVG ) - 中国 上海市
飛行場実況気象(Metar)
観測時間05/25 11:00 CST (05/25 03:00 UTC)
風向・風速南南東 7m/s 瞬間風速12m/s
視程8000m
天気現象弱いしゅう雨
少しの雲 雲底高度 90m
全天の4割程度の雲 雲底高度 910m
気温22℃
湿度94%
気圧1004hPa
METARZSPD 250300Z 15007G12MPS 120V180 8000 -SHRA FEW003 SCT030 22/21 Q1004 RESHRA NOSIG
過去の天気等 Google飛行場航空写真 Wunderground天気予報

過去48時間のMETAR

飛行場予報(TAF)
発表時間: 5/25 08:34 CST (5/25 00:34 UTC)
予報対象時間: 25日8時 CST ~ 26日8時 CST
風向・風速南南東 4m/s
視程6,000m
全天の8割程度の雲 雲底高度 340m
25日8時 CST ~ 25日12時 CST に一時的に
天気現象雷雨
全天の8割程度の雲 雲底高度 210m
全天の4割程度の積乱雲 雲底高度 910m
全天を覆う雲 雲底高度 1,220m
25日14時 CST ~ 25日20時 CST に一時的に
天気現象雷雨
全天の8割程度の雲 雲底高度 210m
全天の4割程度の積乱雲 雲底高度 910m
全天を覆う雲 雲底高度 1,220m
TAF AMD ZSPD 250034Z 2500/2524 15004MPS 6000 BKN011 TX27/2506Z TN17/2521Z
TEMPO 2500/2504 TSRA BKN007 SCT030CB OVC040
TEMPO 2506/2512 TSRA BKN007 SCT030CB OVC040